sensor_id;sensor_type;location;lat;lon;timestamp;P1;durP1;ratioP1;P2;durP2;ratioP2
2049;SDS011;8478;49.208;8.806;2023-11-21T00:00:12;3.27;;;2.67;;
2049;SDS011;8478;49.208;8.806;2023-11-21T00:02:39;2.93;;;2.50;;
2049;SDS011;8478;49.208;8.806;2023-11-21T00:05:07;3.33;;;2.70;;
2049;SDS011;8478;49.208;8.806;2023-11-21T00:07:34;5.40;;;2.30;;
2049;SDS011;8478;49.208;8.806;2023-11-21T00:10:01;4.20;;;2.60;;
2049;SDS011;8478;49.208;8.806;2023-11-21T00:12:28;6.23;;;2.50;;
2049;SDS011;8478;49.208;8.806;2023-11-21T00:14:54;3.53;;;2.70;;
2049;SDS011;8478;49.208;8.806;2023-11-21T00:17:20;4.03;;;2.47;;
2049;SDS011;8478;49.208;8.806;2023-11-21T00:19:46;2.97;;;2.50;;
2049;SDS011;8478;49.208;8.806;2023-11-21T00:22:11;3.00;;;2.60;;
2049;SDS011;8478;49.208;8.806;2023-11-21T00:24:37;6.40;;;2.93;;
2049;SDS011;8478;49.208;8.806;2023-11-21T00:27:02;3.13;;;2.37;;
2049;SDS011;8478;49.208;8.806;2023-11-21T00:29:28;4.43;;;2.67;;
2049;SDS011;8478;49.208;8.806;2023-11-21T00:31:54;2.50;;;2.20;;
2049;SDS011;8478;49.208;8.806;2023-11-21T00:34:20;3.80;;;2.23;;
2049;SDS011;8478;49.208;8.806;2023-11-21T00:36:45;3.47;;;2.63;;
2049;SDS011;8478;49.208;8.806;2023-11-21T00:39:11;3.30;;;2.60;;
2049;SDS011;8478;49.208;8.806;2023-11-21T00:41:37;4.00;;;2.67;;
2049;SDS011;8478;49.208;8.806;2023-11-21T00:44:03;3.77;;;2.77;;
2049;SDS011;8478;49.208;8.806;2023-11-21T00:46:29;2.87;;;2.53;;
2049;SDS011;8478;49.208;8.806;2023-11-21T00:48:54;3.17;;;2.33;;
2049;SDS011;8478;49.208;8.806;2023-11-21T00:51:21;3.30;;;2.40;;
2049;SDS011;8478;49.208;8.806;2023-11-21T00:53:47;3.67;;;2.77;;
2049;SDS011;8478;49.208;8.806;2023-11-21T00:56:13;5.03;;;2.87;;
2049;SDS011;8478;49.208;8.806;2023-11-21T00:58:39;5.00;;;2.30;;
2049;SDS011;8478;49.208;8.806;2023-11-21T01:01:08;3.27;;;2.70;;
2049;SDS011;8478;49.208;8.806;2023-11-21T01:03:34;2.80;;;2.50;;
2049;SDS011;8478;49.208;8.806;2023-11-21T01:06:00;4.63;;;2.17;;
2049;SDS011;8478;49.208;8.806;2023-11-21T01:08:26;3.57;;;2.37;;
2049;SDS011;8478;49.208;8.806;2023-11-21T01:10:52;2.73;;;2.53;;
2049;SDS011;8478;49.208;8.806;2023-11-21T01:13:17;3.70;;;2.20;;
2049;SDS011;8478;49.208;8.806;2023-11-21T01:15:43;4.17;;;2.27;;
2049;SDS011;8478;49.208;8.806;2023-11-21T01:18:09;3.30;;;2.50;;
2049;SDS011;8478;49.208;8.806;2023-11-21T01:20:34;2.80;;;2.10;;
2049;SDS011;8478;49.208;8.806;2023-11-21T01:23:00;2.30;;;2.10;;
2049;SDS011;8478;49.208;8.806;2023-11-21T01:25:26;2.60;;;2.40;;
2049;SDS011;8478;49.208;8.806;2023-11-21T01:27:51;2.70;;;2.37;;
2049;SDS011;8478;49.208;8.806;2023-11-21T01:30:17;2.27;;;1.83;;
2049;SDS011;8478;49.208;8.806;2023-11-21T01:32:43;2.10;;;1.90;;
2049;SDS011;8478;49.208;8.806;2023-11-21T01:35:09;2.60;;;2.30;;
2049;SDS011;8478;49.208;8.806;2023-11-21T01:37:35;5.03;;;2.57;;
2049;SDS011;8478;49.208;8.806;2023-11-21T01:40:02;3.10;;;2.17;;
2049;SDS011;8478;49.208;8.806;2023-11-21T01:42:31;2.40;;;1.90;;
2049;SDS011;8478;49.208;8.806;2023-11-21T01:44:56;3.00;;;2.37;;
2049;SDS011;8478;49.208;8.806;2023-11-21T01:47:22;4.63;;;2.83;;
2049;SDS011;8478;49.208;8.806;2023-11-21T01:49:48;3.30;;;2.60;;
2049;SDS011;8478;49.208;8.806;2023-11-21T01:52:13;3.87;;;2.47;;
2049;SDS011;8478;49.208;8.806;2023-11-21T01:54:40;2.40;;;2.10;;
2049;SDS011;8478;49.208;8.806;2023-11-21T01:57:07;3.20;;;2.57;;
2049;SDS011;8478;49.208;8.806;2023-11-21T01:59:34;3.20;;;2.17;;
2049;SDS011;8478;49.208;8.806;2023-11-21T02:02:01;3.60;;;2.30;;
2049;SDS011;8478;49.208;8.806;2023-11-21T02:04:32;4.70;;;2.40;;
2049;SDS011;8478;49.208;8.806;2023-11-21T02:06:58;3.07;;;2.23;;
2049;SDS011;8478;49.208;8.806;2023-11-21T02:09:25;2.77;;;2.43;;
2049;SDS011;8478;49.208;8.806;2023-11-21T02:11:52;3.20;;;2.37;;
2049;SDS011;8478;49.208;8.806;2023-11-21T02:14:19;3.60;;;2.30;;
2049;SDS011;8478;49.208;8.806;2023-11-21T02:16:47;4.20;;;2.30;;
2049;SDS011;8478;49.208;8.806;2023-11-21T02:19:15;2.13;;;1.90;;
2049;SDS011;8478;49.208;8.806;2023-11-21T02:21:50;2.83;;;2.30;;
2049;SDS011;8478;49.208;8.806;2023-11-21T02:24:23;3.90;;;2.20;;
2049;SDS011;8478;49.208;8.806;2023-11-21T02:26:49;3.13;;;2.43;;
2049;SDS011;8478;49.208;8.806;2023-11-21T02:29:18;4.00;;;2.60;;
2049;SDS011;8478;49.208;8.806;2023-11-21T02:31:47;2.50;;;2.10;;
2049;SDS011;8478;49.208;8.806;2023-11-21T02:34:14;3.70;;;2.30;;
2049;SDS011;8478;49.208;8.806;2023-11-21T02:36:40;5.67;;;2.63;;
2049;SDS011;8478;49.208;8.806;2023-11-21T02:39:07;2.93;;;2.40;;
2049;SDS011;8478;49.208;8.806;2023-11-21T02:41:33;2.10;;;1.90;;
2049;SDS011;8478;49.208;8.806;2023-11-21T02:43:59;4.57;;;2.20;;
2049;SDS011;8478;49.208;8.806;2023-11-21T02:46:25;3.43;;;2.10;;
2049;SDS011;8478;49.208;8.806;2023-11-21T02:48:51;4.90;;;2.47;;
2049;SDS011;8478;49.208;8.806;2023-11-21T02:51:19;2.23;;;2.03;;
2049;SDS011;8478;49.208;8.806;2023-11-21T02:53:45;2.47;;;2.03;;
2049;SDS011;8478;49.208;8.806;2023-11-21T02:56:11;2.63;;;2.03;;
2049;SDS011;8478;49.208;8.806;2023-11-21T02:58:37;2.40;;;2.13;;
2049;SDS011;8478;49.208;8.806;2023-11-21T03:01:06;3.93;;;2.53;;
2049;SDS011;8478;49.208;8.806;2023-11-21T03:03:33;3.03;;;2.20;;
2049;SDS011;8478;49.208;8.806;2023-11-21T03:05:58;3.00;;;2.20;;
2049;SDS011;8478;49.208;8.806;2023-11-21T03:08:24;2.40;;;2.10;;
2049;SDS011;8478;49.208;8.806;2023-11-21T03:10:50;3.10;;;2.13;;
2049;SDS011;8478;49.208;8.806;2023-11-21T03:13:16;2.40;;;2.20;;
2049;SDS011;8478;49.208;8.806;2023-11-21T03:15:41;3.53;;;2.10;;
2049;SDS011;8478;49.208;8.806;2023-11-21T03:18:07;2.60;;;2.27;;
2049;SDS011;8478;49.208;8.806;2023-11-21T03:20:33;2.47;;;1.90;;
2049;SDS011;8478;49.208;8.806;2023-11-21T03:23:00;3.20;;;2.37;;
2049;SDS011;8478;49.208;8.806;2023-11-21T03:25:25;3.40;;;2.20;;
2049;SDS011;8478;49.208;8.806;2023-11-21T03:27:52;2.50;;;2.30;;
2049;SDS011;8478;49.208;8.806;2023-11-21T03:30:18;2.80;;;2.50;;
2049;SDS011;8478;49.208;8.806;2023-11-21T03:32:44;2.20;;;1.90;;
2049;SDS011;8478;49.208;8.806;2023-11-21T03:35:10;2.63;;;2.30;;
2049;SDS011;8478;49.208;8.806;2023-11-21T03:37:35;2.60;;;2.40;;
2049;SDS011;8478;49.208;8.806;2023-11-21T03:40:03;2.57;;;2.13;;
2049;SDS011;8478;49.208;8.806;2023-11-21T03:42:29;2.70;;;2.50;;
2049;SDS011;8478;49.208;8.806;2023-11-21T03:44:55;3.87;;;2.70;;
2049;SDS011;8478;49.208;8.806;2023-11-21T03:47:21;3.90;;;2.53;;
2049;SDS011;8478;49.208;8.806;2023-11-21T03:49:46;2.37;;;2.17;;
2049;SDS011;8478;49.208;8.806;2023-11-21T03:52:12;2.57;;;2.33;;
2049;SDS011;8478;49.208;8.806;2023-11-21T03:54:38;3.70;;;2.20;;
2049;SDS011;8478;49.208;8.806;2023-11-21T03:57:03;2.53;;;2.20;;
2049;SDS011;8478;49.208;8.806;2023-11-21T03:59:29;3.10;;;2.63;;
2049;SDS011;8478;49.208;8.806;2023-11-21T04:01:56;2.93;;;2.47;;
2049;SDS011;8478;49.208;8.806;2023-11-21T04:04:24;2.43;;;2.13;;
2049;SDS011;8478;49.208;8.806;2023-11-21T04:06:50;6.40;;;2.40;;
2049;SDS011;8478;49.208;8.806;2023-11-21T04:09:17;5.00;;;2.70;;
2049;SDS011;8478;49.208;8.806;2023-11-21T04:11:42;2.33;;;2.17;;
2049;SDS011;8478;49.208;8.806;2023-11-21T04:14:10;3.50;;;2.40;;
2049;SDS011;8478;49.208;8.806;2023-11-21T04:16:36;2.60;;;2.13;;
2049;SDS011;8478;49.208;8.806;2023-11-21T04:19:01;4.07;;;2.50;;
2049;SDS011;8478;49.208;8.806;2023-11-21T04:21:27;4.43;;;2.47;;
2049;SDS011;8478;49.208;8.806;2023-11-21T04:23:53;2.50;;;2.30;;
2049;SDS011;8478;49.208;8.806;2023-11-21T04:26:18;2.73;;;2.40;;
2049;SDS011;8478;49.208;8.806;2023-11-21T04:28:44;2.50;;;2.03;;
2049;SDS011;8478;49.208;8.806;2023-11-21T04:31:10;2.83;;;2.63;;
2049;SDS011;8478;49.208;8.806;2023-11-21T04:33:35;2.10;;;1.90;;
2049;SDS011;8478;49.208;8.806;2023-11-21T04:36:01;2.93;;;2.37;;
2049;SDS011;8478;49.208;8.806;2023-11-21T04:38:27;2.10;;;1.90;;
2049;SDS011;8478;49.208;8.806;2023-11-21T04:40:52;4.23;;;2.40;;
2049;SDS011;8478;49.208;8.806;2023-11-21T04:43:18;2.50;;;2.30;;
2049;SDS011;8478;49.208;8.806;2023-11-21T04:45:44;2.10;;;1.90;;
2049;SDS011;8478;49.208;8.806;2023-11-21T04:48:09;2.57;;;2.30;;
2049;SDS011;8478;49.208;8.806;2023-11-21T04:50:35;2.80;;;2.20;;
2049;SDS011;8478;49.208;8.806;2023-11-21T04:53:00;2.90;;;2.70;;
2049;SDS011;8478;49.208;8.806;2023-11-21T04:55:26;5.50;;;2.50;;
2049;SDS011;8478;49.208;8.806;2023-11-21T04:57:53;2.60;;;2.40;;
2049;SDS011;8478;49.208;8.806;2023-11-21T05:00:19;2.70;;;2.50;;
2049;SDS011;8478;49.208;8.806;2023-11-21T05:02:46;3.00;;;2.53;;
2049;SDS011;8478;49.208;8.806;2023-11-21T05:05:12;4.53;;;2.80;;
2049;SDS011;8478;49.208;8.806;2023-11-21T05:07:39;4.80;;;2.77;;
2049;SDS011;8478;49.208;8.806;2023-11-21T05:10:06;3.53;;;3.13;;
2049;SDS011;8478;49.208;8.806;2023-11-21T05:12:35;2.40;;;2.20;;
2049;SDS011;8478;49.208;8.806;2023-11-21T05:15:03;3.80;;;2.33;;
2049;SDS011;8478;49.208;8.806;2023-11-21T05:17:33;2.43;;;2.20;;
2049;SDS011;8478;49.208;8.806;2023-11-21T05:19:59;2.80;;;2.40;;
2049;SDS011;8478;49.208;8.806;2023-11-21T05:22:28;2.77;;;2.57;;
2049;SDS011;8478;49.208;8.806;2023-11-21T05:24:55;2.60;;;2.40;;
2049;SDS011;8478;49.208;8.806;2023-11-21T05:27:21;3.67;;;2.30;;
2049;SDS011;8478;49.208;8.806;2023-11-21T05:29:46;2.20;;;2.00;;
2049;SDS011;8478;49.208;8.806;2023-11-21T05:32:12;3.37;;;3.07;;
2049;SDS011;8478;49.208;8.806;2023-11-21T05:34:38;2.37;;;2.17;;
2049;SDS011;8478;49.208;8.806;2023-11-21T05:37:03;2.90;;;2.33;;
2049;SDS011;8478;49.208;8.806;2023-11-21T05:39:30;2.97;;;2.60;;
2049;SDS011;8478;49.208;8.806;2023-11-21T05:41:57;2.50;;;2.30;;
2049;SDS011;8478;49.208;8.806;2023-11-21T05:44:23;2.37;;;2.17;;
2049;SDS011;8478;49.208;8.806;2023-11-21T05:46:50;2.30;;;2.10;;
2049;SDS011;8478;49.208;8.806;2023-11-21T05:49:15;2.50;;;2.30;;
2049;SDS011;8478;49.208;8.806;2023-11-21T05:51:41;2.57;;;2.37;;
2049;SDS011;8478;49.208;8.806;2023-11-21T05:54:07;2.20;;;2.10;;
2049;SDS011;8478;49.208;8.806;2023-11-21T05:56:33;2.97;;;2.00;;
2049;SDS011;8478;49.208;8.806;2023-11-21T05:58:59;3.60;;;2.60;;
2049;SDS011;8478;49.208;8.806;2023-11-21T06:01:25;2.60;;;2.23;;
2049;SDS011;8478;49.208;8.806;2023-11-21T06:03:53;2.40;;;2.20;;
2049;SDS011;8478;49.208;8.806;2023-11-21T06:06:20;2.60;;;2.40;;
2049;SDS011;8478;49.208;8.806;2023-11-21T06:08:48;2.50;;;2.30;;
2049;SDS011;8478;49.208;8.806;2023-11-21T06:11:14;2.60;;;2.40;;
2049;SDS011;8478;49.208;8.806;2023-11-21T06:13:41;2.67;;;2.47;;
2049;SDS011;8478;49.208;8.806;2023-11-21T06:16:07;4.20;;;2.60;;
2049;SDS011;8478;49.208;8.806;2023-11-21T06:18:33;4.60;;;2.47;;
2049;SDS011;8478;49.208;8.806;2023-11-21T06:21:00;2.67;;;2.47;;
2049;SDS011;8478;49.208;8.806;2023-11-21T06:23:26;2.87;;;2.57;;
2049;SDS011;8478;49.208;8.806;2023-11-21T06:25:52;2.50;;;2.30;;
2049;SDS011;8478;49.208;8.806;2023-11-21T06:28:18;5.27;;;2.90;;
2049;SDS011;8478;49.208;8.806;2023-11-21T06:30:43;2.97;;;2.77;;
2049;SDS011;8478;49.208;8.806;2023-11-21T06:33:14;2.80;;;2.60;;
2049;SDS011;8478;49.208;8.806;2023-11-21T06:35:39;4.83;;;2.87;;
2049;SDS011;8478;49.208;8.806;2023-11-21T06:38:05;3.43;;;2.90;;
2049;SDS011;8478;49.208;8.806;2023-11-21T06:40:31;2.87;;;2.40;;
2049;SDS011;8478;49.208;8.806;2023-11-21T06:42:58;2.97;;;2.73;;
2049;SDS011;8478;49.208;8.806;2023-11-21T06:45:24;4.20;;;2.93;;
2049;SDS011;8478;49.208;8.806;2023-11-21T06:47:50;2.97;;;2.67;;
2049;SDS011;8478;49.208;8.806;2023-11-21T06:50:16;3.00;;;2.37;;
2049;SDS011;8478;49.208;8.806;2023-11-21T06:52:41;2.60;;;2.40;;
2049;SDS011;8478;49.208;8.806;2023-11-21T06:55:08;2.90;;;2.60;;
2049;SDS011;8478;49.208;8.806;2023-11-21T06:57:34;3.27;;;2.97;;
2049;SDS011;8478;49.208;8.806;2023-11-21T07:00:00;3.00;;;2.80;;
2049;SDS011;8478;49.208;8.806;2023-11-21T07:02:26;3.10;;;2.90;;
2049;SDS011;8478;49.208;8.806;2023-11-21T07:04:53;3.43;;;2.80;;
2049;SDS011;8478;49.208;8.806;2023-11-21T07:07:19;2.80;;;2.60;;
2049;SDS011;8478;49.208;8.806;2023-11-21T07:09:45;2.90;;;2.67;;
2049;SDS011;8478;49.208;8.806;2023-11-21T07:12:11;2.30;;;2.20;;
2049;SDS011;8478;49.208;8.806;2023-11-21T07:14:37;2.50;;;2.30;;
2049;SDS011;8478;49.208;8.806;2023-11-21T07:17:04;2.87;;;2.67;;
2049;SDS011;8478;49.208;8.806;2023-11-21T07:19:30;2.77;;;2.50;;
2049;SDS011;8478;49.208;8.806;2023-11-21T07:21:55;2.67;;;2.20;;
2049;SDS011;8478;49.208;8.806;2023-11-21T07:24:21;3.50;;;2.53;;
2049;SDS011;8478;49.208;8.806;2023-11-21T07:26:50;3.00;;;2.23;;
2049;SDS011;8478;49.208;8.806;2023-11-21T07:29:16;3.00;;;2.40;;
2049;SDS011;8478;49.208;8.806;2023-11-21T07:31:41;2.77;;;2.57;;
2049;SDS011;8478;49.208;8.806;2023-11-21T07:34:07;2.37;;;2.20;;
2049;SDS011;8478;49.208;8.806;2023-11-21T07:36:33;2.83;;;2.63;;
2049;SDS011;8478;49.208;8.806;2023-11-21T07:38:59;2.73;;;2.53;;
2049;SDS011;8478;49.208;8.806;2023-11-21T07:41:25;6.07;;;3.00;;
2049;SDS011;8478;49.208;8.806;2023-11-21T07:43:51;4.30;;;3.13;;
2049;SDS011;8478;49.208;8.806;2023-11-21T07:46:17;6.10;;;3.07;;
2049;SDS011;8478;49.208;8.806;2023-11-21T07:48:43;4.00;;;3.23;;
2049;SDS011;8478;49.208;8.806;2023-11-21T07:51:09;6.83;;;3.27;;
2049;SDS011;8478;49.208;8.806;2023-11-21T07:53:35;3.30;;;2.83;;
2049;SDS011;8478;49.208;8.806;2023-11-21T07:56:08;4.63;;;3.20;;
2049;SDS011;8478;49.208;8.806;2023-11-21T07:58:34;3.50;;;3.20;;
2049;SDS011;8478;49.208;8.806;2023-11-21T08:01:00;3.50;;;3.20;;
2049;SDS011;8478;49.208;8.806;2023-11-21T08:03:29;4.27;;;3.80;;
2049;SDS011;8478;49.208;8.806;2023-11-21T08:05:56;3.63;;;3.40;;
2049;SDS011;8478;49.208;8.806;2023-11-21T08:08:22;4.40;;;4.00;;
2049;SDS011;8478;49.208;8.806;2023-11-21T08:10:48;4.20;;;3.90;;
2049;SDS011;8478;49.208;8.806;2023-11-21T08:13:24;4.13;;;3.80;;
2049;SDS011;8478;49.208;8.806;2023-11-21T08:15:53;3.47;;;3.17;;
2049;SDS011;8478;49.208;8.806;2023-11-21T08:18:19;3.47;;;3.20;;
2049;SDS011;8478;49.208;8.806;2023-11-21T08:20:45;4.70;;;4.30;;
2049;SDS011;8478;49.208;8.806;2023-11-21T08:23:13;4.10;;;3.80;;
2049;SDS011;8478;49.208;8.806;2023-11-21T08:25:40;4.83;;;4.10;;
2049;SDS011;8478;49.208;8.806;2023-11-21T08:28:07;4.00;;;3.70;;
2049;SDS011;8478;49.208;8.806;2023-11-21T08:30:33;4.80;;;3.63;;
2049;SDS011;8478;49.208;8.806;2023-11-21T08:33:00;4.27;;;3.97;;
2049;SDS011;8478;49.208;8.806;2023-11-21T08:35:25;4.23;;;3.93;;
2049;SDS011;8478;49.208;8.806;2023-11-21T08:37:51;4.83;;;3.80;;
2049;SDS011;8478;49.208;8.806;2023-11-21T08:40:20;4.90;;;4.33;;
2049;SDS011;8478;49.208;8.806;2023-11-21T08:42:46;4.90;;;4.50;;
2049;SDS011;8478;49.208;8.806;2023-11-21T08:45:13;4.07;;;3.77;;
2049;SDS011;8478;49.208;8.806;2023-11-21T08:47:39;4.63;;;4.23;;
2049;SDS011;8478;49.208;8.806;2023-11-21T08:50:06;4.60;;;4.30;;
2049;SDS011;8478;49.208;8.806;2023-11-21T08:52:33;4.47;;;4.13;;
2049;SDS011;8478;49.208;8.806;2023-11-21T08:54:59;4.53;;;4.13;;
2049;SDS011;8478;49.208;8.806;2023-11-21T08:57:30;4.70;;;4.40;;
2049;SDS011;8478;49.208;8.806;2023-11-21T08:59:55;5.90;;;5.40;;
2049;SDS011;8478;49.208;8.806;2023-11-21T09:02:21;4.87;;;4.50;;
2049;SDS011;8478;49.208;8.806;2023-11-21T09:04:50;5.50;;;5.00;;
2049;SDS011;8478;49.208;8.806;2023-11-21T09:07:17;5.30;;;4.90;;
2049;SDS011;8478;49.208;8.806;2023-11-21T09:09:45;5.40;;;5.00;;
2049;SDS011;8478;49.208;8.806;2023-11-21T09:12:11;5.13;;;4.63;;
2049;SDS011;8478;49.208;8.806;2023-11-21T09:14:37;5.77;;;5.30;;
2049;SDS011;8478;49.208;8.806;2023-11-21T09:17:04;6.67;;;6.07;;
2049;SDS011;8478;49.208;8.806;2023-11-21T09:19:36;6.63;;;6.10;;
2049;SDS011;8478;49.208;8.806;2023-11-21T09:22:05;7.23;;;6.63;;
2049;SDS011;8478;49.208;8.806;2023-11-21T09:24:34;6.83;;;6.33;;
2049;SDS011;8478;49.208;8.806;2023-11-21T09:27:00;6.73;;;6.13;;
2049;SDS011;8478;49.208;8.806;2023-11-21T09:29:26;7.87;;;7.10;;
2049;SDS011;8478;49.208;8.806;2023-11-21T09:31:52;8.40;;;7.67;;
2049;SDS011;8478;49.208;8.806;2023-11-21T09:34:19;10.30;;;9.20;;
2049;SDS011;8478;49.208;8.806;2023-11-21T09:36:48;9.60;;;7.50;;
2049;SDS011;8478;49.208;8.806;2023-11-21T09:39:14;9.83;;;8.97;;
2049;SDS011;8478;49.208;8.806;2023-11-21T09:44:17;11.13;;;9.50;;
2049;SDS011;8478;49.208;8.806;2023-11-21T09:46:45;9.00;;;8.23;;
2049;SDS011;8478;49.208;8.806;2023-11-21T09:49:14;9.67;;;8.70;;
2049;SDS011;8478;49.208;8.806;2023-11-21T09:51:43;9.70;;;8.80;;
2049;SDS011;8478;49.208;8.806;2023-11-21T09:54:12;10.37;;;9.20;;
2049;SDS011;8478;49.208;8.806;2023-11-21T09:56:41;11.37;;;9.67;;
2049;SDS011;8478;49.208;8.806;2023-11-21T09:59:07;8.93;;;8.23;;
2049;SDS011;8478;49.208;8.806;2023-11-21T10:01:38;9.80;;;8.47;;
2049;SDS011;8478;49.208;8.806;2023-11-21T10:04:05;10.37;;;8.40;;
2049;SDS011;8478;49.208;8.806;2023-11-21T10:06:36;9.80;;;8.90;;
2049;SDS011;8478;49.208;8.806;2023-11-21T10:09:08;10.73;;;8.90;;
2049;SDS011;8478;49.208;8.806;2023-11-21T10:11:38;9.57;;;8.77;;
2049;SDS011;8478;49.208;8.806;2023-11-21T10:14:12;9.77;;;8.80;;
2049;SDS011;8478;49.208;8.806;2023-11-21T10:16:39;10.10;;;9.07;;
2049;SDS011;8478;49.208;8.806;2023-11-21T10:19:09;9.10;;;8.30;;
2049;SDS011;8478;49.208;8.806;2023-11-21T10:21:35;9.60;;;8.80;;
2049;SDS011;8478;49.208;8.806;2023-11-21T10:24:03;9.60;;;8.30;;
2049;SDS011;8478;49.208;8.806;2023-11-21T10:26:29;9.87;;;9.07;;
2049;SDS011;8478;49.208;8.806;2023-11-21T10:29:00;10.27;;;9.37;;
2049;SDS011;8478;49.208;8.806;2023-11-21T10:31:30;9.40;;;8.80;;
2049;SDS011;8478;49.208;8.806;2023-11-21T10:34:14;8.27;;;7.67;;
2049;SDS011;8478;49.208;8.806;2023-11-21T10:36:41;9.50;;;8.60;;
2049;SDS011;8478;49.208;8.806;2023-11-21T10:39:07;10.30;;;9.50;;
2049;SDS011;8478;49.208;8.806;2023-11-21T10:41:34;9.37;;;8.57;;
2049;SDS011;8478;49.208;8.806;2023-11-21T10:44:00;9.10;;;8.40;;
2049;SDS011;8478;49.208;8.806;2023-11-21T10:46:29;9.83;;;8.83;;
2049;SDS011;8478;49.208;8.806;2023-11-21T10:48:55;9.43;;;8.73;;
2049;SDS011;8478;49.208;8.806;2023-11-21T10:51:21;9.97;;;9.20;;
2049;SDS011;8478;49.208;8.806;2023-11-21T10:53:49;9.03;;;8.43;;
2049;SDS011;8478;49.208;8.806;2023-11-21T10:56:18;9.23;;;8.50;;
2049;SDS011;8478;49.208;8.806;2023-11-21T10:58:48;9.13;;;8.33;;
2049;SDS011;8478;49.208;8.806;2023-11-21T11:01:15;9.30;;;8.60;;
2049;SDS011;8478;49.208;8.806;2023-11-21T11:03:43;9.87;;;9.17;;
2049;SDS011;8478;49.208;8.806;2023-11-21T11:06:09;8.80;;;8.20;;
2049;SDS011;8478;49.208;8.806;2023-11-21T11:08:37;8.43;;;7.73;;
2049;SDS011;8478;49.208;8.806;2023-11-21T11:11:04;8.60;;;7.90;;
2049;SDS011;8478;49.208;8.806;2023-11-21T11:13:30;8.70;;;7.80;;
2049;SDS011;8478;49.208;8.806;2023-11-21T11:16:00;8.90;;;8.07;;
2049;SDS011;8478;49.208;8.806;2023-11-21T11:18:27;7.90;;;7.20;;
2049;SDS011;8478;49.208;8.806;2023-11-21T11:20:54;7.93;;;7.33;;
2049;SDS011;8478;49.208;8.806;2023-11-21T11:26:19;8.30;;;7.33;;
2049;SDS011;8478;49.208;8.806;2023-11-21T11:29:13;6.90;;;6.30;;
2049;SDS011;8478;49.208;8.806;2023-11-21T11:34:35;7.03;;;5.00;;
2049;SDS011;8478;49.208;8.806;2023-11-21T11:37:07;6.00;;;5.07;;
2049;SDS011;8478;49.208;8.806;2023-11-21T11:39:40;5.00;;;4.60;;
2049;SDS011;8478;49.208;8.806;2023-11-21T11:42:10;5.73;;;4.20;;
2049;SDS011;8478;49.208;8.806;2023-11-21T11:47:16;4.60;;;4.00;;
2049;SDS011;8478;49.208;8.806;2023-11-21T11:55:10;6.30;;;3.97;;
2049;SDS011;8478;49.208;8.806;2023-11-21T11:57:41;3.90;;;3.53;;
2049;SDS011;8478;49.208;8.806;2023-11-21T12:03:00;3.87;;;3.37;;
2049;SDS011;8478;49.208;8.806;2023-11-21T12:05:28;4.20;;;3.80;;
2049;SDS011;8478;49.208;8.806;2023-11-21T12:08:01;4.50;;;4.10;;
2049;SDS011;8478;49.208;8.806;2023-11-21T12:10:28;6.07;;;2.90;;
2049;SDS011;8478;49.208;8.806;2023-11-21T12:12:56;3.50;;;3.30;;
2049;SDS011;8478;49.208;8.806;2023-11-21T12:15:23;3.57;;;3.27;;
2049;SDS011;8478;49.208;8.806;2023-11-21T12:17:50;3.33;;;2.80;;
2049;SDS011;8478;49.208;8.806;2023-11-21T12:20:20;3.40;;;3.10;;
2049;SDS011;8478;49.208;8.806;2023-11-21T12:22:48;2.87;;;2.67;;
2049;SDS011;8478;49.208;8.806;2023-11-21T12:27:48;5.03;;;2.87;;
2049;SDS011;8478;49.208;8.806;2023-11-21T12:30:15;2.70;;;2.50;;
2049;SDS011;8478;49.208;8.806;2023-11-21T12:32:43;2.80;;;2.60;;
2049;SDS011;8478;49.208;8.806;2023-11-21T12:35:11;2.97;;;2.73;;
2049;SDS011;8478;49.208;8.806;2023-11-21T12:37:37;2.87;;;2.40;;
2049;SDS011;8478;49.208;8.806;2023-11-21T12:40:05;2.67;;;2.47;;
2049;SDS011;8478;49.208;8.806;2023-11-21T12:42:33;2.40;;;2.30;;
2049;SDS011;8478;49.208;8.806;2023-11-21T12:47:51;2.90;;;2.70;;
2049;SDS011;8478;49.208;8.806;2023-11-21T12:50:20;2.70;;;2.50;;
2049;SDS011;8478;49.208;8.806;2023-11-21T12:52:48;2.60;;;2.40;;
2049;SDS011;8478;49.208;8.806;2023-11-21T12:55:19;2.93;;;2.73;;
2049;SDS011;8478;49.208;8.806;2023-11-21T12:57:49;2.77;;;2.57;;
2049;SDS011;8478;49.208;8.806;2023-11-21T13:00:29;2.60;;;2.40;;
2049;SDS011;8478;49.208;8.806;2023-11-21T13:02:58;3.50;;;2.33;;
2049;SDS011;8478;49.208;8.806;2023-11-21T13:05:28;2.33;;;2.13;;
2049;SDS011;8478;49.208;8.806;2023-11-21T13:07:59;3.50;;;2.13;;
2049;SDS011;8478;49.208;8.806;2023-11-21T13:10:28;2.60;;;2.40;;
2049;SDS011;8478;49.208;8.806;2023-11-21T13:12:59;2.73;;;2.20;;
2049;SDS011;8478;49.208;8.806;2023-11-21T13:15:28;3.03;;;2.83;;
2049;SDS011;8478;49.208;8.806;2023-11-21T13:17:56;2.47;;;2.27;;
2049;SDS011;8478;49.208;8.806;2023-11-21T13:20:22;3.20;;;2.10;;
2049;SDS011;8478;49.208;8.806;2023-11-21T13:25:16;2.33;;;2.23;;
2049;SDS011;8478;49.208;8.806;2023-11-21T13:27:45;2.33;;;2.13;;
2049;SDS011;8478;49.208;8.806;2023-11-21T13:30:14;2.40;;;2.30;;
2049;SDS011;8478;49.208;8.806;2023-11-21T13:32:41;2.03;;;1.83;;
2049;SDS011;8478;49.208;8.806;2023-11-21T13:35:16;2.10;;;2.00;;
2049;SDS011;8478;49.208;8.806;2023-11-21T13:37:56;2.30;;;2.10;;
2049;SDS011;8478;49.208;8.806;2023-11-21T13:40:25;2.10;;;2.00;;
2049;SDS011;8478;49.208;8.806;2023-11-21T13:42:51;2.90;;;2.60;;
2049;SDS011;8478;49.208;8.806;2023-11-21T13:45:24;2.40;;;2.20;;
2049;SDS011;8478;49.208;8.806;2023-11-21T13:47:52;2.70;;;2.50;;
2049;SDS011;8478;49.208;8.806;2023-11-21T13:50:30;2.87;;;2.67;;
2049;SDS011;8478;49.208;8.806;2023-11-21T13:52:59;2.67;;;2.47;;
2049;SDS011;8478;49.208;8.806;2023-11-21T13:55:35;2.73;;;2.50;;
2049;SDS011;8478;49.208;8.806;2023-11-21T13:58:02;2.40;;;2.20;;
2049;SDS011;8478;49.208;8.806;2023-11-21T14:00:29;2.50;;;2.30;;
2049;SDS011;8478;49.208;8.806;2023-11-21T14:03:09;2.47;;;2.27;;
2049;SDS011;8478;49.208;8.806;2023-11-21T14:05:42;3.00;;;2.73;;
2049;SDS011;8478;49.208;8.806;2023-11-21T14:08:11;2.80;;;2.60;;
2049;SDS011;8478;49.208;8.806;2023-11-21T14:10:41;2.33;;;2.23;;
2049;SDS011;8478;49.208;8.806;2023-11-21T14:13:11;2.50;;;2.30;;
2049;SDS011;8478;49.208;8.806;2023-11-21T14:15:38;2.10;;;2.00;;
2049;SDS011;8478;49.208;8.806;2023-11-21T14:18:07;2.80;;;2.60;;
2049;SDS011;8478;49.208;8.806;2023-11-21T14:20:36;3.13;;;2.93;;
2049;SDS011;8478;49.208;8.806;2023-11-21T14:23:03;3.40;;;2.60;;
2049;SDS011;8478;49.208;8.806;2023-11-21T14:25:31;2.60;;;2.40;;
2049;SDS011;8478;49.208;8.806;2023-11-21T14:27:57;2.27;;;2.07;;
2049;SDS011;8478;49.208;8.806;2023-11-21T14:30:23;4.43;;;2.70;;
2049;SDS011;8478;49.208;8.806;2023-11-21T14:32:50;2.80;;;2.60;;
2049;SDS011;8478;49.208;8.806;2023-11-21T14:35:16;3.53;;;3.20;;
2049;SDS011;8478;49.208;8.806;2023-11-21T14:37:42;2.80;;;2.60;;
2049;SDS011;8478;49.208;8.806;2023-11-21T14:40:09;2.97;;;2.77;;
2049;SDS011;8478;49.208;8.806;2023-11-21T14:42:35;2.73;;;2.53;;
2049;SDS011;8478;49.208;8.806;2023-11-21T14:45:04;3.17;;;2.90;;
2049;SDS011;8478;49.208;8.806;2023-11-21T14:47:32;5.70;;;2.93;;
2049;SDS011;8478;49.208;8.806;2023-11-21T14:50:00;3.80;;;3.50;;
2049;SDS011;8478;49.208;8.806;2023-11-21T14:52:44;3.53;;;3.23;;
2049;SDS011;8478;49.208;8.806;2023-11-21T14:55:20;3.80;;;3.50;;
2049;SDS011;8478;49.208;8.806;2023-11-21T14:57:57;4.47;;;3.97;;
2049;SDS011;8478;49.208;8.806;2023-11-21T15:00:27;5.23;;;4.73;;
2049;SDS011;8478;49.208;8.806;2023-11-21T15:02:59;8.13;;;7.30;;
2049;SDS011;8478;49.208;8.806;2023-11-21T15:05:26;10.43;;;9.43;;
2049;SDS011;8478;49.208;8.806;2023-11-21T15:07:53;9.00;;;7.27;;
2049;SDS011;8478;49.208;8.806;2023-11-21T15:10:21;8.97;;;7.60;;
2049;SDS011;8478;49.208;8.806;2023-11-21T15:13:02;9.70;;;8.00;;
2049;SDS011;8478;49.208;8.806;2023-11-21T15:15:27;8.70;;;7.20;;
2049;SDS011;8478;49.208;8.806;2023-11-21T15:17:55;8.30;;;6.97;;
2049;SDS011;8478;49.208;8.806;2023-11-21T15:20:21;9.43;;;7.10;;
2049;SDS011;8478;49.208;8.806;2023-11-21T15:22:47;7.93;;;6.70;;
2049;SDS011;8478;49.208;8.806;2023-11-21T15:25:13;8.97;;;7.90;;
2049;SDS011;8478;49.208;8.806;2023-11-21T15:27:39;8.83;;;7.90;;
2049;SDS011;8478;49.208;8.806;2023-11-21T15:30:06;8.70;;;7.80;;
2049;SDS011;8478;49.208;8.806;2023-11-21T15:32:32;6.80;;;6.20;;
2049;SDS011;8478;49.208;8.806;2023-11-21T15:34:58;6.83;;;6.23;;
2049;SDS011;8478;49.208;8.806;2023-11-21T15:37:23;7.17;;;6.50;;
2049;SDS011;8478;49.208;8.806;2023-11-21T15:39:52;6.97;;;6.27;;
2049;SDS011;8478;49.208;8.806;2023-11-21T15:42:17;6.87;;;6.27;;